createdAt,value
2017-05-04T00:01:01.747Z,32.13
2017-05-04T00:03:29.353Z,31.93
2017-05-04T00:05:57.248Z,33.17
2017-05-04T00:08:25.314Z,34.95
2017-05-04T00:10:53.258Z,34.55
2017-05-04T00:13:20.827Z,35.05
2017-05-04T00:15:48.880Z,38.55
2017-05-04T00:18:16.779Z,38.82
2017-05-04T00:20:45.307Z,36.73
2017-05-04T00:23:12.962Z,36.65
2017-05-04T00:25:40.851Z,35.13
2017-05-04T00:28:09.053Z,34.78
2017-05-04T00:30:36.789Z,38.78
2017-05-04T00:33:04.954Z,36.50
2017-05-04T00:35:32.936Z,37.10
2017-05-04T00:38:00.851Z,36.43
2017-05-04T00:40:28.936Z,35.83
2017-05-04T00:42:57.040Z,34.80
2017-05-04T00:45:25.105Z,36.00
2017-05-04T00:47:53.020Z,35.73
2017-05-04T00:50:20.893Z,35.78
2017-05-04T00:52:49.071Z,35.33
2017-05-04T00:55:17.266Z,35.97
2017-05-04T00:57:45.520Z,39.32
2017-05-04T01:00:13.407Z,37.82
2017-05-04T01:02:40.953Z,38.60
2017-05-04T01:05:09.056Z,42.68
2017-05-04T01:07:37.653Z,39.82
2017-05-04T01:10:05.584Z,40.47
2017-05-04T01:12:33.505Z,35.77
2017-05-04T01:15:02.237Z,37.37
2017-05-04T01:17:29.844Z,33.95
2017-05-04T01:19:57.715Z,35.12
2017-05-04T01:22:25.212Z,36.88
2017-05-04T01:24:53.088Z,33.60
2017-05-04T01:27:20.612Z,37.33
2017-05-04T01:29:48.096Z,36.00
2017-05-04T01:32:15.993Z,37.57
2017-05-04T01:34:43.469Z,41.53
2017-05-04T01:37:10.963Z,39.58
2017-05-04T01:39:38.835Z,37.17
2017-05-04T01:42:06.728Z,37.85
2017-05-04T01:44:34.602Z,37.17
2017-05-04T01:47:02.100Z,37.68
2017-05-04T01:49:30.030Z,40.35
2017-05-04T01:51:57.535Z,40.57
2017-05-04T01:54:25.405Z,40.83
2017-05-04T01:56:53.452Z,38.73
2017-05-04T01:59:21.341Z,44.07
2017-05-04T02:01:49.219Z,41.28
2017-05-04T02:04:16.714Z,41.47
2017-05-04T02:06:44.595Z,40.43
2017-05-04T02:09:12.860Z,43.38
2017-05-04T02:11:40.727Z,41.30
2017-05-04T02:14:08.974Z,40.38
2017-05-04T02:16:36.850Z,43.80
2017-05-04T02:19:04.339Z,43.72
2017-05-04T02:21:31.804Z,43.47
2017-05-04T02:23:59.288Z,43.38
2017-05-04T02:26:27.224Z,43.18
2017-05-04T02:28:55.086Z,40.20
2017-05-04T02:31:23.279Z,41.95
2017-05-04T02:33:50.769Z,42.50
2017-05-04T02:36:18.632Z,41.70
2017-05-04T02:38:46.119Z,43.42
2017-05-04T02:41:13.583Z,45.22
2017-05-04T02:43:41.071Z,45.10
2017-05-04T02:46:08.538Z,43.28
2017-05-04T02:48:36.025Z,45.20
2017-05-04T02:51:03.887Z,44.50
2017-05-04T02:53:31.770Z,43.88
2017-05-04T02:55:59.763Z,48.25
2017-05-04T02:58:27.644Z,45.47
2017-05-04T03:00:55.115Z,43.32
2017-05-04T03:03:22.995Z,47.18
2017-05-04T03:05:50.854Z,45.30
2017-05-04T03:08:18.735Z,45.50
2017-05-04T03:10:46.608Z,42.67
2017-05-04T03:13:14.488Z,46.73
2017-05-04T03:15:42.347Z,44.93
2017-05-04T03:18:10.222Z,45.17
2017-05-04T03:20:38.079Z,49.95
2017-05-04T03:23:05.955Z,50.17
2017-05-04T03:25:33.850Z,45.72
2017-05-04T03:28:01.731Z,46.80
2017-05-04T03:30:29.591Z,46.60
2017-05-04T03:32:57.457Z,48.10
2017-05-04T03:35:24.943Z,44.77
2017-05-04T03:37:52.823Z,49.25
2017-05-04T03:40:20.287Z,49.53
2017-05-04T03:42:48.162Z,51.05
2017-05-04T03:45:15.627Z,53.12
2017-05-04T03:47:43.504Z,50.92
2017-05-04T03:50:11.364Z,52.37
2017-05-04T03:52:39.253Z,52.32
2017-05-04T03:55:06.930Z,52.12
2017-05-04T03:57:34.822Z,52.97
2017-05-04T04:00:02.703Z,49.82
2017-05-04T04:02:30.592Z,53.92
2017-05-04T04:04:58.463Z,51.68
2017-05-04T04:07:26.355Z,49.18
2017-05-04T04:09:54.600Z,49.57
2017-05-04T04:12:22.497Z,49.12
2017-05-04T04:14:50.368Z,49.18
2017-05-04T04:17:18.464Z,47.77
2017-05-04T04:19:46.345Z,47.97
2017-05-04T04:22:14.236Z,50.45
2017-05-04T04:24:42.109Z,47.03
2017-05-04T04:27:10.000Z,52.28
2017-05-04T04:29:37.480Z,48.70
2017-05-04T04:32:05.352Z,48.55
2017-05-04T04:34:32.844Z,48.42
2017-05-04T04:37:00.723Z,46.75
2017-05-04T04:39:28.589Z,50.60
2017-05-04T04:41:56.474Z,48.20
2017-05-04T04:44:24.709Z,48.40
2017-05-04T04:46:52.594Z,54.00
2017-05-04T04:49:20.455Z,49.68
2017-05-04T04:51:48.331Z,46.57
2017-05-04T04:54:16.200Z,49.48
2017-05-04T04:56:44.079Z,48.32
2017-05-04T04:59:11.947Z,49.17
2017-05-04T05:01:39.828Z,48.97
2017-05-04T05:04:07.290Z,50.42
2017-05-04T05:06:34.775Z,45.60
2017-05-04T05:09:02.643Z,52.07
2017-05-04T05:11:30.520Z,52.07
2017-05-04T05:13:58.383Z,51.10
2017-05-04T05:16:26.290Z,50.57
2017-05-04T05:18:54.170Z,53.57
2017-05-04T05:21:21.651Z,52.10
2017-05-04T05:23:49.125Z,51.08
2017-05-04T05:26:17.002Z,52.12
2017-05-04T05:28:44.869Z,51.50
2017-05-04T05:31:12.351Z,54.07
2017-05-04T05:33:40.214Z,49.98
2017-05-04T05:36:07.691Z,47.87
2017-05-04T05:38:35.576Z,52.00
2017-05-04T05:41:03.062Z,57.08
2017-05-04T05:43:30.923Z,52.40
2017-05-04T05:45:58.551Z,50.20
2017-05-04T05:48:26.024Z,48.30
2017-05-04T05:50:53.904Z,48.63
2017-05-04T05:53:21.375Z,54.47
2017-05-04T05:55:48.867Z,53.95
2017-05-04T05:58:16.732Z,56.62
2017-05-04T06:00:44.604Z,55.88
2017-05-04T06:03:12.847Z,52.48
2017-05-04T06:05:40.740Z,52.43
2017-05-04T06:08:08.610Z,57.95
2017-05-04T06:10:36.501Z,60.03
2017-05-04T06:13:04.380Z,63.32
2017-05-04T06:15:32.009Z,58.35
2017-05-04T06:17:59.910Z,60.22
2017-05-04T06:20:27.398Z,57.07
2017-05-04T06:22:55.274Z,63.22
2017-05-04T06:25:23.154Z,60.63
2017-05-04T06:27:51.015Z,65.17
2017-05-04T06:30:18.903Z,61.70
2017-05-04T06:32:46.780Z,59.48
2017-05-04T06:35:14.263Z,59.52
2017-05-04T06:37:41.732Z,71.03
2017-05-04T06:40:09.590Z,57.87
2017-05-04T06:42:37.469Z,55.43
2017-05-04T06:45:05.355Z,60.35
2017-05-04T06:47:33.291Z,57.58
2017-05-04T06:50:01.372Z,62.50
2017-05-04T06:52:29.247Z,70.22
2017-05-04T06:54:57.145Z,61.72
2017-05-04T06:57:25.241Z,62.50
2017-05-04T06:59:54.460Z,65.35
2017-05-04T07:02:21.946Z,63.15
2017-05-04T07:04:49.831Z,63.07
2017-05-04T07:07:17.829Z,58.85
2017-05-04T07:09:45.313Z,58.10
2017-05-04T07:12:13.174Z,55.18
2017-05-04T07:14:40.661Z,55.92
2017-05-04T07:17:08.528Z,65.33
2017-05-04T07:19:36.411Z,62.57
2017-05-04T07:22:04.667Z,62.67
2017-05-04T07:24:32.543Z,68.17
2017-05-04T07:27:00.402Z,66.05
2017-05-04T07:29:28.285Z,68.03
2017-05-04T07:31:56.147Z,72.95
2017-05-04T07:34:23.631Z,64.52
2017-05-04T07:36:51.903Z,76.62
2017-05-04T07:39:19.367Z,76.30
2017-05-04T07:41:46.863Z,62.33
2017-05-04T07:44:14.332Z,60.80
2017-05-04T07:46:42.215Z,62.27
2017-05-04T07:49:10.074Z,56.98
2017-05-04T07:51:37.555Z,55.38
2017-05-04T07:54:05.786Z,57.78
2017-05-04T07:56:33.685Z,59.62
2017-05-04T07:59:01.559Z,60.12
2017-05-04T08:01:29.434Z,59.95
2017-05-04T08:03:56.899Z,54.15
2017-05-04T08:06:24.783Z,51.88
2017-05-04T08:08:52.647Z,51.65
2017-05-04T08:11:20.130Z,49.83
2017-05-04T08:13:47.995Z,51.58
2017-05-04T08:16:15.876Z,49.65
2017-05-04T08:18:43.763Z,54.05
2017-05-04T08:21:11.244Z,51.78
2017-05-04T08:23:39.101Z,49.17
2017-05-04T08:26:07.415Z,47.90
2017-05-04T08:28:35.267Z,54.33
2017-05-04T08:31:03.147Z,46.70
2017-05-04T08:33:30.688Z,50.10
2017-05-04T08:35:58.807Z,49.17
2017-05-04T08:38:26.671Z,47.28
2017-05-04T08:40:54.975Z,49.72
2017-05-04T08:43:22.845Z,51.08
2017-05-04T08:45:50.724Z,51.50
2017-05-04T08:48:18.213Z,51.87
2017-05-04T08:50:46.078Z,48.53
2017-05-04T08:53:13.959Z,51.32
2017-05-04T08:55:41.464Z,45.43
2017-05-04T08:58:09.336Z,45.73
2017-05-04T09:00:37.216Z,48.33
2017-05-04T09:03:05.078Z,44.97
2017-05-04T09:05:32.641Z,49.67
2017-05-04T09:08:00.514Z,47.10
2017-05-04T09:10:28.007Z,45.32
2017-05-04T09:12:55.877Z,46.25
2017-05-04T09:15:23.753Z,45.10
2017-05-04T09:17:51.620Z,43.25
2017-05-04T09:20:19.498Z,46.67
2017-05-04T09:22:47.360Z,46.77
2017-05-04T09:25:15.223Z,41.25
2017-05-04T09:27:43.104Z,42.27
2017-05-04T09:30:10.963Z,47.65
2017-05-04T09:32:38.445Z,45.82
2017-05-04T09:35:06.686Z,45.80
2017-05-04T09:37:34.546Z,40.45
2017-05-04T09:40:02.407Z,41.45
2017-05-04T09:42:30.283Z,38.73
2017-05-04T09:44:58.162Z,39.80
2017-05-04T09:47:26.045Z,44.87
2017-05-04T09:49:53.527Z,42.45
2017-05-04T09:52:21.514Z,43.10
2017-05-04T09:54:48.998Z,42.13
2017-05-04T09:57:16.891Z,42.10
2017-05-04T09:59:44.772Z,43.70
2017-05-04T10:02:12.248Z,46.85
2017-05-04T10:04:39.748Z,45.67
2017-05-04T10:07:07.611Z,45.07
2017-05-04T10:09:35.603Z,43.55
2017-05-04T10:12:03.471Z,43.13
2017-05-04T10:14:31.382Z,44.08
2017-05-04T10:16:58.864Z,44.23
2017-05-04T10:19:26.752Z,47.92
2017-05-04T10:21:55.965Z,45.00
2017-05-04T10:24:23.843Z,41.82
2017-05-04T10:26:51.907Z,41.20
2017-05-04T10:29:19.790Z,42.93
2017-05-04T10:31:47.263Z,40.63
2017-05-04T10:34:14.758Z,43.60
2017-05-04T10:36:42.653Z,43.78
2017-05-04T10:39:10.539Z,41.58
2017-05-04T10:41:38.409Z,42.38
2017-05-04T10:44:06.283Z,42.00
2017-05-04T10:46:34.180Z,43.15
2017-05-04T10:49:02.074Z,40.18
2017-05-04T10:51:29.965Z,45.45
2017-05-04T10:53:57.859Z,52.73
2017-05-04T10:56:25.379Z,48.67
2017-05-04T10:58:53.265Z,55.15
2017-05-04T11:01:20.785Z,56.08
2017-05-04T11:03:48.686Z,55.45
2017-05-04T11:06:16.573Z,61.15
2017-05-04T11:08:44.061Z,84.22
2017-05-04T11:11:11.967Z,64.53
2017-05-04T11:13:39.456Z,77.35
2017-05-04T11:16:06.927Z,78.55
2017-05-04T11:18:35.225Z,77.67
2017-05-04T11:21:03.147Z,74.83
2017-05-04T11:23:31.027Z,65.73
2017-05-04T11:25:59.050Z,80.45
2017-05-04T11:28:27.304Z,59.47
2017-05-04T11:30:55.207Z,66.87
2017-05-04T11:33:23.113Z,59.63
2017-05-04T11:35:54.033Z,56.80
2017-05-04T11:38:23.556Z,52.13
2017-05-04T11:40:53.187Z,50.60
2017-05-04T11:43:25.802Z,49.05
2017-05-04T11:45:54.876Z,45.03
2017-05-04T11:48:22.822Z,41.12
2017-05-04T11:50:50.680Z,40.65
2017-05-04T11:53:18.562Z,41.33
2017-05-04T11:55:46.427Z,37.35
2017-05-04T11:58:14.303Z,44.33
2017-05-04T12:00:42.163Z,43.90
2017-05-04T12:03:10.048Z,42.17
2017-05-04T12:05:38.279Z,41.43
2017-05-04T12:08:06.140Z,39.07
2017-05-04T12:10:33.619Z,46.25
2017-05-04T12:13:01.499Z,49.80
2017-05-04T12:15:28.963Z,40.88
2017-05-04T12:17:56.851Z,46.62
2017-05-04T12:20:24.317Z,43.52
2017-05-04T12:22:52.199Z,45.18
2017-05-04T12:25:20.058Z,39.62
2017-05-04T12:27:48.051Z,51.52
2017-05-04T12:30:15.914Z,38.00
2017-05-04T12:32:44.444Z,43.60
2017-05-04T12:35:12.372Z,47.00
2017-05-04T12:37:40.253Z,39.53
2017-05-04T12:40:07.899Z,45.67
2017-05-04T12:42:35.778Z,41.52
2017-05-04T12:45:03.245Z,37.12
2017-05-04T12:47:31.123Z,38.53
2017-05-04T12:49:58.621Z,47.22
2017-05-04T12:52:26.487Z,50.37
2017-05-04T12:54:54.362Z,55.53
2017-05-04T12:57:22.383Z,59.85
2017-05-04T12:59:50.327Z,57.30
2017-05-04T13:02:18.210Z,60.98
2017-05-04T13:04:46.577Z,50.72
2017-05-04T13:07:15.083Z,39.33
2017-05-04T13:09:43.480Z,36.40
2017-05-04T13:12:11.427Z,39.65
2017-05-04T13:14:39.666Z,38.08
2017-05-04T13:17:08.043Z,38.65
2017-05-04T13:19:36.434Z,29.93
2017-05-04T13:22:05.267Z,29.67
2017-05-04T13:24:33.360Z,33.30
2017-05-04T13:27:01.736Z,30.82
2017-05-04T13:29:29.679Z,35.33
2017-05-04T13:31:57.756Z,33.48
2017-05-04T13:34:26.246Z,32.63
2017-05-04T13:36:54.702Z,33.42
2017-05-04T13:39:22.903Z,33.00
2017-05-04T13:41:51.306Z,36.60
2017-05-04T13:44:19.243Z,36.10
2017-05-04T13:46:47.217Z,42.40
2017-05-04T13:49:15.676Z,31.97
2017-05-04T13:51:43.691Z,34.27
2017-05-04T13:54:11.827Z,35.37
2017-05-04T13:56:39.364Z,36.85
2017-05-04T13:59:07.260Z,37.67
2017-05-04T14:01:34.758Z,36.07
2017-05-04T14:04:03.301Z,32.70
2017-05-04T14:06:31.690Z,28.13
2017-05-04T14:09:00.019Z,30.83
2017-05-04T14:11:28.378Z,31.92
2017-05-04T14:13:56.071Z,34.23
2017-05-04T14:16:24.026Z,33.85
2017-05-04T14:18:51.898Z,40.98
2017-05-04T14:21:19.776Z,37.98
2017-05-04T14:23:47.726Z,40.52
2017-05-04T14:26:15.385Z,36.58
2017-05-04T14:28:43.312Z,39.97
2017-05-04T14:31:12.005Z,40.33
2017-05-04T14:33:39.970Z,36.48
2017-05-04T14:36:07.948Z,40.63
2017-05-04T14:38:36.167Z,35.53
2017-05-04T14:41:04.582Z,38.03
2017-05-04T14:43:33.096Z,37.00
2017-05-04T14:46:00.929Z,45.55
2017-05-04T14:48:28.850Z,47.92
2017-05-04T14:50:56.719Z,47.47
2017-05-04T14:53:24.599Z,42.55
2017-05-04T14:55:52.070Z,41.97
2017-05-04T14:58:19.547Z,36.87
2017-05-04T15:00:47.823Z,27.10
2017-05-04T15:03:15.309Z,29.42
2017-05-04T15:05:43.207Z,22.60
2017-05-04T15:08:11.228Z,17.20
2017-05-04T15:10:39.096Z,13.87
2017-05-04T15:13:06.975Z,17.38
2017-05-04T15:15:34.910Z,14.70
2017-05-04T15:18:02.421Z,13.83
2017-05-04T15:20:30.280Z,12.80
2017-05-04T15:22:58.170Z,10.73
2017-05-04T15:25:26.049Z,12.62
2017-05-04T15:27:53.549Z,16.47
2017-05-04T15:30:21.885Z,18.53
2017-05-04T15:32:50.157Z,21.12
2017-05-04T15:35:18.063Z,22.65
2017-05-04T15:37:45.966Z,28.68
2017-05-04T15:40:14.111Z,26.92
2017-05-04T15:42:42.391Z,30.87
2017-05-04T15:45:10.542Z,36.40
2017-05-04T15:47:39.340Z,33.03
2017-05-04T15:50:07.560Z,34.23
2017-05-04T15:52:35.938Z,40.57
2017-05-04T15:55:04.009Z,36.73
2017-05-04T15:57:32.304Z,41.57
2017-05-04T16:00:00.440Z,37.62
2017-05-04T16:02:28.292Z,39.62
2017-05-04T16:04:56.693Z,34.00
2017-05-04T16:07:24.831Z,40.65
2017-05-04T16:09:54.552Z,41.95
2017-05-04T16:12:22.450Z,40.53
2017-05-04T16:14:50.327Z,36.97
2017-05-04T16:17:18.593Z,36.37
2017-05-04T16:19:46.479Z,40.82
2017-05-04T16:22:13.979Z,39.13
2017-05-04T16:24:41.857Z,41.82
2017-05-04T16:27:09.772Z,39.30
2017-05-04T16:29:37.659Z,36.90
2017-05-04T16:32:05.552Z,37.08
2017-05-04T16:34:33.424Z,36.30
2017-05-04T16:37:01.313Z,39.70
2017-05-04T16:39:29.192Z,35.50
2017-05-04T16:41:57.457Z,37.15
2017-05-04T16:44:25.332Z,40.93
2017-05-04T16:46:53.843Z,33.35
2017-05-04T16:49:21.321Z,36.32
2017-05-04T16:51:49.228Z,37.27
2017-05-04T16:54:17.468Z,39.38
2017-05-04T16:56:45.940Z,33.52
2017-05-04T16:59:13.419Z,34.47
2017-05-04T17:01:40.972Z,33.77
2017-05-04T17:04:08.852Z,36.10
2017-05-04T17:06:36.748Z,35.47
2017-05-04T17:09:04.632Z,34.72
2017-05-04T17:11:32.527Z,35.82
2017-05-04T17:14:00.400Z,34.25
2017-05-04T17:16:28.283Z,32.93
2017-05-04T17:18:55.755Z,35.72
2017-05-04T17:21:23.784Z,32.75
2017-05-04T17:23:51.268Z,34.53
2017-05-04T17:26:19.147Z,30.20
2017-05-04T17:28:47.119Z,32.25
2017-05-04T17:31:17.469Z,30.95
2017-05-04T17:33:58.797Z,33.07
2017-05-04T17:36:33.302Z,32.15
2017-05-04T17:39:02.859Z,31.33
2017-05-04T17:41:31.725Z,25.72
2017-05-04T17:44:00.538Z,26.97
2017-05-04T17:46:29.402Z,23.82
2017-05-04T17:49:06.933Z,23.23
2017-05-04T17:51:34.834Z,21.07
2017-05-04T17:54:02.693Z,20.52
2017-05-04T17:56:30.577Z,23.02
2017-05-04T17:58:59.238Z,18.90
2017-05-04T18:01:27.127Z,17.70
2017-05-04T18:03:54.991Z,19.65
2017-05-04T18:06:22.957Z,16.98
2017-05-04T18:08:50.439Z,19.93
2017-05-04T18:11:18.318Z,17.65
2017-05-04T18:13:46.186Z,18.37
2017-05-04T18:16:14.215Z,18.13
2017-05-04T18:18:41.679Z,16.43
2017-05-04T18:21:09.754Z,15.88
2017-05-04T18:23:37.708Z,15.32
2017-05-04T18:26:05.643Z,17.00
2017-05-04T18:28:33.503Z,15.27
2017-05-04T18:31:01.351Z,17.45
2017-05-04T18:33:29.234Z,16.13
2017-05-04T18:35:57.133Z,15.28
2017-05-04T18:38:25.129Z,15.18
2017-05-04T18:40:53.276Z,16.30
2017-05-04T18:43:21.323Z,15.47
2017-05-04T18:45:49.735Z,14.72
2017-05-04T18:48:17.535Z,16.28
2017-05-04T18:50:45.554Z,15.47
2017-05-04T18:53:13.534Z,17.17
2017-05-04T18:55:41.566Z,15.55
2017-05-04T18:58:09.699Z,17.53
2017-05-04T19:00:37.286Z,17.53
2017-05-04T19:03:05.392Z,16.10
2017-05-04T19:05:33.301Z,17.43
2017-05-04T19:08:02.055Z,18.80
2017-05-04T19:10:29.639Z,19.50
2017-05-04T19:12:57.708Z,18.77
2017-05-04T19:15:25.631Z,16.47
2017-05-04T19:17:53.455Z,16.65
2017-05-04T19:20:21.438Z,18.85
2017-05-04T19:22:49.294Z,17.52
2017-05-04T19:25:17.292Z,18.17
2017-05-04T19:27:45.658Z,17.20
2017-05-04T19:30:13.969Z,19.02
2017-05-04T19:32:41.841Z,17.67
2017-05-04T19:35:09.900Z,19.67
2017-05-04T19:37:37.644Z,18.57
2017-05-04T19:40:06.051Z,19.95
2017-05-04T19:42:33.515Z,18.05
2017-05-04T19:45:01.196Z,22.93
2017-05-04T19:47:29.548Z,19.58
2017-05-04T19:49:58.121Z,19.87
2017-05-04T19:52:25.984Z,20.98
2017-05-04T19:54:53.863Z,20.88
2017-05-04T19:57:21.579Z,18.83
2017-05-04T19:59:49.487Z,20.95
2017-05-04T20:02:17.456Z,20.63
2017-05-04T20:04:45.386Z,21.65
2017-05-04T20:07:14.415Z,21.02
2017-05-04T20:09:42.378Z,22.48
2017-05-04T20:12:10.243Z,21.98
2017-05-04T20:14:38.118Z,22.65
2017-05-04T20:17:05.618Z,23.18
2017-05-04T20:19:33.500Z,23.27
2017-05-04T20:22:01.747Z,22.63
2017-05-04T20:24:29.919Z,24.55
2017-05-04T20:26:57.843Z,23.72
2017-05-04T20:29:25.387Z,23.78
2017-05-04T20:31:54.035Z,25.05
2017-05-04T20:34:22.018Z,25.98
2017-05-04T20:36:50.173Z,25.72
2017-05-04T20:39:18.199Z,24.98
2017-05-04T20:41:46.027Z,25.15
2017-05-04T20:44:13.517Z,28.08
2017-05-04T20:46:41.787Z,24.60
2017-05-04T20:49:09.283Z,28.62
2017-05-04T20:51:36.755Z,25.02
2017-05-04T20:54:05.303Z,26.43
2017-05-04T20:56:33.171Z,23.82
2017-05-04T20:59:01.174Z,28.93
2017-05-04T21:01:29.302Z,28.50
2017-05-04T21:03:58.028Z,24.02
2017-05-04T21:06:25.890Z,24.13
2017-05-04T21:08:53.407Z,26.52
2017-05-04T21:11:21.688Z,23.95
2017-05-04T21:13:49.902Z,25.60
2017-05-04T21:16:18.044Z,23.33
2017-05-04T21:18:45.907Z,23.30
2017-05-04T21:21:13.766Z,22.93
2017-05-04T21:23:42.005Z,23.98
2017-05-04T21:26:11.168Z,21.87
2017-05-04T21:28:40.027Z,20.27
2017-05-04T21:31:07.893Z,21.20
2017-05-04T21:33:35.559Z,25.42
2017-05-04T21:36:03.613Z,19.90
2017-05-04T21:38:31.895Z,18.33
2017-05-04T21:40:59.362Z,18.82
2017-05-04T21:43:27.246Z,18.50
2017-05-04T21:45:55.367Z,19.23
2017-05-04T21:48:23.719Z,17.48
2017-05-04T21:50:51.599Z,18.48
2017-05-04T21:53:19.483Z,18.18
2017-05-04T21:55:47.342Z,20.02
2017-05-04T21:58:15.226Z,21.03
2017-05-04T22:00:43.089Z,17.53
2017-05-04T22:03:11.473Z,20.20
2017-05-04T22:05:39.495Z,19.90
2017-05-04T22:08:08.222Z,18.38
2017-05-04T22:10:36.792Z,20.03
2017-05-04T22:13:04.950Z,19.12
2017-05-04T22:15:33.242Z,18.50
2017-05-04T22:18:01.138Z,18.93
2017-05-04T22:20:29.505Z,18.10
2017-05-04T22:22:58.050Z,18.77
2017-05-04T22:25:26.309Z,19.82
2017-05-04T22:27:54.145Z,19.43
2017-05-04T22:30:22.501Z,17.83
2017-05-04T22:32:50.238Z,19.10
2017-05-04T22:35:18.967Z,19.12
2017-05-04T22:37:47.604Z,20.02
2017-05-04T22:40:15.086Z,18.55
2017-05-04T22:42:42.639Z,18.97
2017-05-04T22:45:10.518Z,17.22
2017-05-04T22:47:38.510Z,15.87
2017-05-04T22:50:06.083Z,17.02
2017-05-04T22:52:34.479Z,17.32
2017-05-04T22:55:03.144Z,17.92
2017-05-04T22:57:31.022Z,16.13
2017-05-04T22:59:58.975Z,17.13
2017-05-04T23:02:26.839Z,16.80
2017-05-04T23:04:54.323Z,16.20
2017-05-04T23:07:22.196Z,15.98
2017-05-04T23:09:50.070Z,16.60
2017-05-04T23:12:17.922Z,16.43
2017-05-04T23:14:45.810Z,17.33
2017-05-04T23:17:13.675Z,20.63
2017-05-04T23:19:41.551Z,17.60
2017-05-04T23:22:09.414Z,17.48
2017-05-04T23:24:37.284Z,16.98
2017-05-04T23:27:05.144Z,17.50
2017-05-04T23:29:33.019Z,15.98
2017-05-04T23:32:00.875Z,16.82
2017-05-04T23:34:28.754Z,16.70
2017-05-04T23:36:56.608Z,20.83
2017-05-04T23:39:24.462Z,16.47
2017-05-04T23:41:52.334Z,16.83
2017-05-04T23:44:20.202Z,18.65
2017-05-04T23:46:48.061Z,17.58
2017-05-04T23:49:15.522Z,16.85
2017-05-04T23:51:43.394Z,16.62
2017-05-04T23:54:11.272Z,16.40
2017-05-04T23:56:39.132Z,16.78
2017-05-04T23:59:07.017Z,16.17
